createdAt,value
2018-12-07T00:03:45.951Z,72.90
2018-12-07T00:08:48.036Z,71.79
2018-12-07T00:13:50.110Z,72.07
2018-12-07T00:18:52.278Z,72.86
2018-12-07T00:23:54.334Z,72.39
2018-12-07T00:28:56.510Z,72.66
2018-12-07T00:33:58.679Z,72.22
2018-12-07T00:39:00.851Z,72.55
2018-12-07T00:44:03.423Z,72.00
2018-12-07T00:49:05.542Z,72.92
2018-12-07T00:54:07.621Z,72.75
2018-12-07T00:59:09.794Z,73.05
2018-12-07T01:04:12.143Z,73.21
2018-12-07T01:09:14.399Z,73.80
2018-12-07T01:14:16.872Z,74.15
2018-12-07T01:19:18.966Z,74.94
2018-12-07T01:24:21.086Z,74.52
2018-12-07T01:29:23.162Z,74.97
2018-12-07T01:34:25.375Z,74.44
2018-12-07T01:39:27.468Z,74.70
2018-12-07T01:44:30.022Z,74.65
2018-12-07T01:49:49.089Z,75.67
2018-12-07T01:54:52.336Z,75.90
2018-12-07T01:59:54.419Z,75.82
2018-12-07T02:04:56.805Z,75.74
2018-12-07T02:10:06.811Z,75.11
2018-12-07T02:15:09.089Z,74.87
2018-12-07T02:20:11.261Z,74.42
2018-12-07T02:25:14.130Z,74.69
2018-12-07T02:30:16.411Z,74.21
2018-12-07T02:35:18.814Z,74.74
2018-12-07T02:40:20.996Z,74.29
2018-12-07T02:45:23.179Z,74.72
2018-12-07T02:50:25.469Z,74.75
2018-12-07T02:55:27.534Z,74.45
2018-12-07T03:00:29.683Z,74.75
2018-12-07T03:05:31.851Z,74.50
2018-12-07T03:10:34.061Z,75.27
2018-12-07T03:15:36.249Z,74.19
2018-12-07T03:20:38.542Z,74.77
2018-12-07T03:25:40.706Z,74.76
2018-12-07T03:30:42.858Z,74.75
2018-12-07T03:35:45.178Z,75.29
2018-12-07T03:40:48.454Z,74.49
2018-12-07T03:45:50.585Z,74.17
2018-12-07T03:50:52.750Z,74.40
2018-12-07T03:55:54.936Z,75.62
2018-12-07T04:00:56.986Z,75.30
2018-12-07T04:05:59.038Z,75.42
2018-12-07T04:11:01.386Z,75.67
2018-12-07T04:16:03.690Z,75.47
2018-12-07T04:21:18.353Z,75.17
2018-12-07T04:26:20.668Z,74.53
2018-12-07T04:31:22.867Z,74.27
2018-12-07T04:36:25.091Z,74.84
2018-12-07T04:41:27.263Z,74.83
2018-12-07T04:46:29.543Z,74.82
2018-12-07T04:56:40.846Z,74.40
2018-12-07T05:01:43.767Z,73.60
2018-12-07T05:06:45.963Z,73.57
2018-12-07T05:11:48.142Z,74.62
2018-12-07T05:16:50.309Z,74.56
2018-12-07T05:21:52.496Z,74.36
2018-12-07T05:26:54.566Z,73.44
2018-12-07T05:31:56.622Z,73.71
2018-12-07T05:37:00.014Z,73.59
2018-12-07T05:42:02.078Z,73.25
2018-12-07T05:47:04.957Z,73.04
2018-12-07T05:52:07.069Z,72.38
2018-12-07T05:57:09.130Z,73.43
2018-12-07T06:02:11.315Z,73.83
2018-12-07T06:07:13.570Z,73.06
2018-12-07T06:12:16.310Z,72.99
2018-12-07T06:17:18.397Z,73.07
2018-12-07T06:22:20.746Z,73.23
2018-12-07T06:27:22.933Z,74.09
2018-12-07T06:32:24.981Z,74.94
2018-12-07T06:37:27.068Z,76.17
2018-12-07T06:42:29.369Z,76.30
2018-12-07T06:47:31.533Z,77.44
2018-12-07T06:52:34.626Z,77.71
2018-12-07T06:57:36.810Z,77.74
2018-12-07T07:02:38.966Z,77.45
2018-12-07T07:07:41.207Z,78.47
2018-12-07T07:12:43.518Z,79.09
2018-12-07T07:17:45.834Z,80.28
2018-12-07T07:22:47.958Z,81.28
2018-12-07T07:27:50.118Z,81.73
2018-12-07T07:32:52.640Z,82.27
2018-12-07T07:37:57.776Z,82.32
2018-12-07T07:43:00.838Z,82.97
2018-12-07T07:48:03.116Z,83.73
2018-12-07T07:53:12.146Z,83.65
2018-12-07T07:58:14.461Z,84.11
2018-12-07T08:03:16.786Z,83.66
2018-12-07T08:08:19.398Z,84.53
2018-12-07T08:13:22.010Z,84.89
2018-12-07T08:18:24.192Z,85.43
2018-12-07T08:23:26.302Z,86.37
2018-12-07T08:28:29.214Z,87.05
2018-12-07T08:33:31.501Z,87.08
2018-12-07T08:38:33.930Z,87.48
2018-12-07T08:43:35.982Z,87.22
2018-12-07T08:48:38.133Z,87.03
2018-12-07T08:53:40.358Z,86.26
2018-12-07T08:58:42.779Z,87.21
2018-12-07T09:03:45.074Z,86.88
2018-12-07T09:08:48.515Z,86.54
2018-12-07T09:13:50.704Z,87.00
2018-12-07T09:18:52.953Z,86.10
2018-12-07T09:23:55.333Z,86.64
2018-12-07T09:28:57.374Z,86.54
2018-12-07T09:33:59.572Z,86.16
2018-12-07T09:39:01.985Z,87.11
2018-12-07T09:44:04.362Z,86.56
2018-12-07T09:49:06.433Z,86.16
2018-12-07T09:54:09.056Z,86.15
2018-12-07T09:59:11.334Z,85.46
2018-12-07T10:04:13.770Z,85.46
2018-12-07T10:09:15.905Z,84.23
2018-12-07T10:14:18.079Z,83.86
2018-12-07T10:19:20.742Z,83.39
2018-12-07T10:24:22.945Z,84.13
2018-12-07T10:29:32.013Z,83.43
2018-12-07T10:34:34.049Z,83.15
2018-12-07T10:39:43.316Z,83.03
2018-12-07T10:44:45.502Z,83.77
2018-12-07T10:49:47.662Z,82.85
2018-12-07T10:54:50.053Z,82.62
2018-12-07T10:59:52.393Z,83.26
2018-12-07T11:05:00.291Z,83.77
2018-12-07T11:10:09.029Z,83.71
2018-12-07T11:15:16.913Z,83.44
2018-12-07T11:20:24.729Z,83.36
2018-12-07T11:25:32.774Z,83.36
2018-12-07T11:30:39.578Z,84.16
2018-12-07T11:35:42.166Z,83.19
2018-12-07T11:40:44.338Z,83.60
2018-12-07T11:45:48.546Z,83.64
2018-12-07T11:50:50.735Z,83.91
2018-12-07T11:55:52.914Z,83.53
2018-12-07T12:00:55.755Z,82.73
2018-12-07T12:05:57.942Z,82.38
2018-12-07T12:11:00.373Z,81.63
2018-12-07T12:16:02.667Z,79.62
2018-12-07T12:21:05.059Z,79.02
2018-12-07T12:26:07.445Z,79.52
2018-12-07T12:31:10.151Z,79.43
2018-12-07T12:36:16.949Z,78.63
2018-12-07T12:41:16.539Z,78.60
2018-12-07T12:46:18.834Z,78.05
2018-12-07T12:51:20.895Z,77.93
2018-12-07T12:56:22.974Z,77.70
2018-12-07T13:01:25.448Z,76.52
2018-12-07T13:06:27.584Z,76.02
2018-12-07T13:11:30.010Z,76.30
2018-12-07T13:16:32.094Z,75.64
2018-12-07T13:21:34.258Z,76.84
2018-12-07T13:26:36.461Z,78.51
2018-12-07T13:31:38.634Z,79.28
2018-12-07T13:36:40.689Z,77.65
2018-12-07T13:41:50.211Z,77.07
2018-12-07T13:46:48.222Z,76.42
2018-12-07T13:51:50.484Z,76.57
2018-12-07T13:56:52.657Z,76.99
2018-12-07T14:01:54.917Z,76.69
2018-12-07T14:06:58.158Z,75.50
2018-12-07T14:12:00.485Z,75.06
2018-12-07T14:17:02.899Z,75.31
2018-12-07T14:22:05.388Z,75.60
2018-12-07T14:27:08.524Z,76.06
2018-12-07T14:32:11.043Z,76.13
2018-12-07T14:37:14.680Z,75.45
2018-12-07T14:42:17.266Z,76.44
2018-12-07T14:47:20.075Z,75.60
2018-12-07T14:52:22.538Z,74.11
2018-12-07T14:57:24.982Z,73.32
2018-12-07T15:02:27.512Z,72.96
2018-12-07T15:07:30.079Z,74.48
2018-12-07T15:12:32.443Z,75.99
2018-12-07T15:17:34.763Z,74.30
2018-12-07T15:22:37.286Z,73.63
2018-12-07T15:27:39.627Z,72.33
2018-12-07T15:32:42.995Z,71.56
2018-12-07T15:37:45.273Z,71.91
2018-12-07T15:42:47.588Z,71.83
2018-12-07T15:47:50.496Z,71.46
2018-12-07T15:52:53.720Z,72.06
2018-12-07T15:57:56.126Z,72.61
2018-12-07T16:02:58.436Z,73.26
2018-12-07T16:08:00.820Z,71.86
2018-12-07T16:13:03.162Z,71.77
2018-12-07T16:18:05.549Z,73.00
2018-12-07T16:23:07.825Z,72.93
2018-12-07T16:28:10.207Z,74.35
2018-12-07T16:33:12.635Z,76.95
2018-12-07T16:38:14.703Z,78.08
2018-12-07T16:43:17.110Z,94.25
2018-12-07T16:48:19.516Z,81.10
2018-12-07T16:53:22.081Z,80.56
2018-12-07T16:58:24.472Z,80.30
2018-12-07T17:03:26.818Z,79.87
2018-12-07T17:08:29.074Z,79.67
2018-12-07T17:13:31.505Z,79.61
2018-12-07T17:18:34.008Z,78.18
2018-12-07T17:23:36.278Z,78.31
2018-12-07T17:28:38.626Z,78.03
2018-12-07T17:33:40.952Z,77.92
2018-12-07T17:38:43.306Z,77.66
2018-12-07T17:43:45.646Z,77.52
2018-12-07T17:48:48.008Z,76.87
2018-12-07T17:53:50.308Z,76.60
2018-12-07T17:58:53.983Z,75.76
2018-12-07T18:03:56.374Z,75.11
2018-12-07T18:08:58.630Z,75.70
2018-12-07T18:14:00.979Z,74.78
2018-12-07T18:19:03.846Z,73.60
2018-12-07T18:24:06.223Z,73.69
2018-12-07T18:29:09.585Z,73.34
2018-12-07T18:34:11.961Z,73.21
2018-12-07T18:39:14.368Z,71.87
2018-12-07T18:44:16.934Z,72.65
2018-12-07T18:49:19.772Z,70.49
2018-12-07T18:54:22.088Z,70.82
2018-12-07T18:59:24.225Z,70.66
2018-12-07T19:04:26.386Z,69.42
2018-12-07T19:09:29.080Z,70.61
2018-12-07T19:14:31.778Z,69.63
2018-12-07T19:19:34.115Z,67.27
2018-12-07T19:24:43.488Z,66.55
2018-12-07T19:29:46.008Z,67.55
2018-12-07T19:34:48.675Z,68.36
2018-12-07T19:39:52.028Z,67.79
2018-12-07T19:44:54.353Z,68.44
2018-12-07T19:49:56.768Z,67.81
2018-12-07T19:54:59.430Z,68.13
2018-12-07T20:00:03.579Z,67.57
2018-12-07T20:05:06.644Z,67.67
2018-12-07T20:10:09.232Z,68.50
2018-12-07T20:15:11.833Z,68.26
2018-12-07T20:20:14.165Z,68.20
2018-12-07T20:25:16.785Z,68.26
2018-12-07T20:30:20.165Z,69.50
2018-12-07T20:35:22.494Z,68.75
2018-12-07T20:40:24.686Z,68.32
2018-12-07T20:45:27.167Z,69.17
2018-12-07T20:50:29.627Z,68.02
2018-12-07T20:55:32.234Z,69.08
2018-12-07T21:00:34.677Z,68.68
2018-12-07T21:11:31.970Z,66.88
2018-12-07T21:17:49.505Z,67.66
2018-12-07T21:22:51.832Z,68.01
2018-12-07T21:27:54.476Z,67.19
2018-12-07T21:32:56.732Z,66.75
2018-12-07T21:37:58.829Z,66.86
2018-12-07T21:43:01.133Z,66.79
2018-12-07T21:48:24.998Z,66.13
2018-12-07T21:53:27.114Z,66.41
2018-12-07T21:58:29.370Z,67.00
2018-12-07T22:03:31.674Z,66.81
2018-12-07T22:08:41.912Z,67.70
2018-12-07T22:13:44.465Z,67.50
2018-12-07T22:18:54.257Z,68.06
2018-12-07T22:23:56.829Z,67.41
2018-12-07T22:34:34.620Z,67.40
2018-12-07T22:39:37.093Z,66.49
2018-12-07T22:44:39.937Z,66.89
2018-12-07T22:49:42.669Z,67.37
2018-12-07T22:54:44.734Z,67.43
2018-12-07T22:59:48.250Z,68.20
2018-12-07T23:04:50.574Z,72.06
2018-12-07T23:09:52.695Z,72.48
2018-12-07T23:14:54.999Z,69.04
2018-12-07T23:19:57.166Z,60.97
2018-12-07T23:24:59.502Z,61.72
2018-12-07T23:30:01.775Z,60.88
2018-12-07T23:35:04.745Z,61.64
2018-12-07T23:40:08.010Z,62.90
2018-12-07T23:45:10.317Z,62.18
2018-12-07T23:50:12.598Z,61.22
2018-12-07T23:55:14.921Z,60.66
